Time;durP1;ratioP1;P1;durP2;ratioP2;P2;SDS_P1;SDS_P2;PMS_P1;PMS_P2;Temp;Humidity;BMP_temperature;BMP_pressure;BME280_temperature;BME280_humidity;BME280_pressure;Samples;Min_cycle;Max_cycle;Signal;HPM_P1;HPM_P2
2022/12/25 00:00:39;;;;;;;20.73;5.97;;;7.00;99.90;;;;;;5075052;28;20422;-73
2022/12/25 00:03:05;;;;;;;12.93;5.70;;;7.00;99.90;;;;;;5093015;28;20453;-72
2022/12/25 00:05:31;;;;;;;10.90;5.90;;;7.00;99.90;;;;;;5091536;28;20462;-69
2022/12/25 00:07:56;;;;;;;9.87;4.70;;;7.00;99.90;;;;;;5092836;28;20420;-72
2022/12/25 00:10:22;;;;;;;19.10;6.37;;;7.00;99.90;;;;;;5074481;28;20989;-71
2022/12/25 00:12:48;;;;;;;5.77;5.17;;;7.00;99.90;;;;;;5092727;28;20166;-72
2022/12/25 00:15:16;;;;;;;10.40;5.53;;;7.00;99.90;;;;;;5073967;28;20446;-69
2022/12/25 00:17:41;;;;;;;16.60;5.50;;;6.90;99.90;;;;;;5092901;28;20879;-73
2022/12/25 00:20:08;;;;;;;5.70;5.20;;;6.90;99.90;;;;;;5092869;28;20165;-68
2022/12/25 00:22:34;;;;;;;11.33;5.73;;;7.00;99.90;;;;;;5092024;28;20220;-70
2022/12/25 00:25:00;;;;;;;16.90;5.30;;;6.90;99.90;;;;;;5092068;28;20427;-73
2022/12/25 00:27:25;;;;;;;10.43;4.90;;;6.90;99.90;;;;;;5092633;28;20460;-68
2022/12/25 00:29:51;;;;;;;9.73;5.20;;;6.90;99.90;;;;;;5092782;28;20252;-69
2022/12/25 00:32:17;;;;;;;12.03;6.50;;;6.80;99.90;;;;;;5092753;28;20412;-71
2022/12/25 00:34:42;;;;;;;8.90;5.43;;;6.80;99.90;;;;;;5091644;28;20197;-71
2022/12/25 00:37:08;;;;;;;19.87;5.90;;;6.80;99.90;;;;;;5074505;28;20174;-71
2022/12/25 00:39:34;;;;;;;13.53;5.40;;;6.80;99.90;;;;;;5092587;28;20180;-68
2022/12/25 00:42:17;;;;;;;15.97;5.67;;;6.80;99.90;;;;;;5091912;28;20637;-68
2022/12/25 00:44:43;;;;;;;7.27;5.40;;;6.80;99.90;;;;;;5091744;28;20229;-71
2022/12/25 00:47:09;;;;;;;11.17;5.70;;;6.80;99.90;;;;;;5092398;28;20411;-68
2022/12/25 00:49:35;;;;;;;13.63;5.53;;;6.80;99.90;;;;;;5074185;28;20407;-68
2022/12/25 00:52:00;;;;;;;13.60;5.50;;;6.80;99.90;;;;;;5074583;28;20511;-71
2022/12/25 00:54:26;;;;;;;16.77;7.80;;;6.90;99.90;;;;;;5073581;28;20270;-71
2022/12/25 00:56:52;;;;;;;14.83;5.97;;;6.90;99.90;;;;;;5092090;28;20292;-68
2022/12/25 00:59:18;;;;;;;20.73;6.20;;;6.90;99.90;;;;;;5095207;28;20181;-69
2022/12/25 01:01:43;;;;;;;11.50;5.67;;;7.00;99.90;;;;;;5096145;28;20162;-68
2022/12/25 01:04:11;;;;;;;11.63;5.63;;;7.00;99.90;;;;;;5095201;28;20190;-68
2022/12/25 01:06:36;;;;;;;12.57;4.33;;;7.00;99.90;;;;;;5095295;28;20186;-72
2022/12/25 01:11:46;;;;;;;9.47;6.47;;;7.00;99.90;;;;;;5095990;28;20250;-71
2022/12/25 01:14:12;;;;;;;17.27;5.47;;;7.00;99.90;;;;;;5095479;28;20477;-69
2022/12/25 01:16:38;;;;;;;8.57;4.23;;;7.00;99.90;;;;;;5094592;28;20181;-69
2022/12/25 01:19:04;;;;;;;13.77;5.70;;;7.00;99.90;;;;;;5095696;28;20178;-71
2022/12/25 01:21:30;;;;;;;14.53;6.37;;;7.00;99.90;;;;;;5095553;28;20169;-68
2022/12/25 01:23:56;;;;;;;11.20;6.23;;;7.00;99.90;;;;;;5095506;28;20506;-72
2022/12/25 01:26:23;;;;;;;19.70;5.50;;;7.00;99.90;;;;;;5077057;28;20473;-71
2022/12/25 01:28:50;;;;;;;11.70;5.07;;;7.00;99.90;;;;;;5077637;28;20416;-69
2022/12/25 01:31:18;;;;;;;9.17;4.70;;;7.00;99.90;;;;;;5095338;28;20400;-69
2022/12/25 01:33:45;;;;;;;22.60;5.10;;;7.00;99.90;;;;;;5095483;28;20411;-68
2022/12/25 01:36:19;;;;;;;21.90;5.40;;;7.00;99.90;;;;;;5075733;28;20487;-71
2022/12/25 01:38:46;;;;;;;16.87;4.90;;;7.10;99.90;;;;;;5094985;28;20395;-69
2022/12/25 01:41:13;;;;;;;20.60;5.67;;;7.10;99.90;;;;;;5095307;28;20396;-71
2022/12/25 01:44:02;;;;;;;14.27;6.20;;;7.10;99.90;;;;;;5077067;28;20416;-71
2022/12/25 01:46:29;;;;;;;13.57;5.90;;;7.10;99.90;;;;;;5086568;28;20498;-71
2022/12/25 01:49:08;;;;;;;7.73;5.73;;;7.10;99.90;;;;;;5094863;28;20399;-68
2022/12/25 01:51:38;;;;;;;12.07;5.47;;;7.00;99.90;;;;;;5094435;28;20400;-69
2022/12/25 01:54:10;;;;;;;9.47;4.97;;;7.10;99.90;;;;;;5094917;28;20455;-72
2022/12/25 01:56:38;;;;;;;10.70;5.20;;;7.10;99.90;;;;;;5094680;28;20458;-71
2022/12/25 01:59:06;;;;;;;19.23;6.53;;;7.00;99.90;;;;;;5094984;28;20534;-68
2022/12/25 02:01:32;;;;;;;11.10;6.13;;;7.00;99.90;;;;;;5094651;28;20801;-70
2022/12/25 02:04:20;;;;;;;15.30;6.30;;;7.00;99.90;;;;;;5094868;28;20424;-71
2022/12/25 02:06:48;;;;;;;22.70;7.87;;;7.00;99.90;;;;;;5094066;28;20200;-68
2022/12/25 02:09:14;;;;;;;18.70;6.87;;;7.00;99.90;;;;;;5075348;28;20506;-70
2022/12/25 02:11:55;;;;;;;14.47;6.90;;;7.00;99.90;;;;;;5094470;28;20407;-68
2022/12/25 02:14:21;;;;;;;14.10;7.90;;;7.10;99.90;;;;;;5093890;28;20435;-69
2022/12/25 02:16:54;;;;;;;12.60;6.60;;;7.10;99.90;;;;;;5094593;28;20433;-68
2022/12/25 02:19:48;;;;;;;10.83;6.00;;;7.10;99.90;;;;;;5094549;28;20904;-71
2022/12/25 02:22:38;;;;;;;15.97;6.70;;;7.10;99.90;;;;;;5076610;28;20420;-71
2022/12/25 02:25:16;;;;;;;21.83;7.77;;;7.10;99.90;;;;;;5093710;28;20438;-71
2022/12/25 02:27:59;;;;;;;19.77;7.20;;;7.10;99.90;;;;;;5093732;28;20403;-69
2022/12/25 02:30:28;;;;;;;12.47;6.70;;;7.20;99.90;;;;;;5076513;28;20746;-71
2022/12/25 02:35:52;;;;;;;19.20;8.10;;;7.20;99.90;;;;;;5093448;28;20460;-71
2022/12/25 02:38:30;;;;;;;18.87;7.13;;;7.10;99.90;;;;;;5094146;28;20403;-71
2022/12/25 02:40:58;;;;;;;17.50;8.57;;;7.20;99.90;;;;;;5072461;28;20900;-71
2022/12/25 03:08:51;;;;;;;16.13;6.10;;;7.10;99.90;;;;;;5073391;28;20812;-68
2022/12/25 03:11:32;;;;;;;10.30;7.10;;;7.10;99.90;;;;;;5073371;28;20765;-71
2022/12/25 03:16:49;;;;;;;14.33;6.87;;;7.00;99.90;;;;;;5073254;28;20559;-70
2022/12/25 03:27:32;;;;;;;24.87;11.80;;;7.00;99.90;;;;;;5073116;28;20453;-68
2022/12/25 03:32:57;;;;;;;30.07;10.20;;;7.00;99.90;;;;;;5073137;28;20387;-68
2022/12/25 03:36:03;;;;;;;18.17;10.00;;;7.00;99.90;;;;;;5072221;28;20460;-68
2022/12/25 03:49:50;;;;;;;22.43;11.30;;;6.90;99.90;;;;;;5068854;28;20466;-68
2022/12/25 04:37:49;;;;;;;25.93;13.47;;;6.70;99.90;;;;;;5075799;28;20442;-68
2022/12/25 04:40:15;;;;;;;29.20;12.50;;;6.60;99.90;;;;;;5076111;28;20397;-68
2022/12/25 04:42:41;;;;;;;20.27;11.50;;;6.70;99.90;;;;;;5076093;28;20177;-72
2022/12/25 04:45:07;;;;;;;29.43;11.80;;;6.70;99.90;;;;;;5075267;28;20428;-70
2022/12/25 04:47:33;;;;;;;29.57;12.70;;;6.80;99.90;;;;;;5076043;28;20167;-71
2022/12/25 04:49:58;;;;;;;20.87;12.27;;;6.70;99.90;;;;;;5075976;28;20400;-69
2022/12/25 04:52:24;;;;;;;36.43;12.73;;;6.70;99.90;;;;;;5057993;28;20170;-69
2022/12/25 04:54:50;;;;;;;28.30;11.67;;;6.70;99.90;;;;;;5075062;28;20189;-71
2022/12/25 04:57:16;;;;;;;34.73;13.97;;;6.70;99.90;;;;;;5075588;28;20577;-71
2022/12/25 04:59:41;;;;;;;39.83;13.73;;;6.80;99.90;;;;;;5075679;28;20166;-69
2022/12/25 05:02:07;;;;;;;32.80;12.70;;;6.80;99.90;;;;;;5075799;28;20426;-71
2022/12/25 05:04:33;;;;;;;34.43;12.70;;;6.80;99.90;;;;;;5074997;28;20182;-71
2022/12/25 05:06:58;;;;;;;27.43;15.13;;;6.90;99.90;;;;;;5075448;28;20530;-71
2022/12/25 05:09:25;;;;;;;24.43;12.07;;;6.90;99.90;;;;;;5075668;28;20167;-71
2022/12/25 05:11:51;;;;;;;43.13;12.87;;;6.90;99.90;;;;;;5075573;28;20178;-69
2022/12/25 05:14:16;;;;;;;32.40;12.83;;;6.90;99.90;;;;;;5074954;28;20428;-72
2022/12/25 05:16:42;;;;;;;39.63;13.67;;;6.90;99.90;;;;;;5075352;28;20197;-71
2022/12/25 05:19:08;;;;;;;39.27;12.60;;;7.00;99.90;;;;;;5075377;28;20201;-69
2022/12/25 05:21:33;;;;;;;39.47;14.87;;;7.00;99.90;;;;;;5075442;28;20622;-69
2022/12/25 05:23:59;;;;;;;28.40;13.30;;;7.10;99.90;;;;;;5075296;28;20639;-71
2022/12/25 05:26:26;;;;;;;35.73;13.37;;;7.00;99.90;;;;;;5074675;28;20171;-71
2022/12/25 05:28:52;;;;;;;47.17;14.30;;;7.00;99.90;;;;;;5075396;28;20650;-69
2022/12/25 05:31:18;;;;;;;46.17;13.77;;;7.00;99.90;;;;;;5074614;28;20396;-71
2022/12/25 05:33:44;;;;;;;35.03;16.67;;;7.00;99.90;;;;;;5075111;28;20436;-69
2022/12/25 05:36:11;;;;;;;31.20;14.77;;;7.00;99.90;;;;;;5074465;28;20511;-69
2022/12/25 05:38:37;;;;;;;32.00;12.70;;;7.00;99.90;;;;;;5075147;28;20622;-71
2022/12/25 05:41:03;;;;;;;26.20;12.57;;;7.00;99.90;;;;;;5075130;28;20400;-71
2022/12/25 05:43:29;;;;;;;33.83;15.60;;;6.90;99.90;;;;;;5074670;28;20396;-68
2022/12/25 05:45:55;;;;;;;22.83;11.87;;;6.90;99.90;;;;;;5074159;28;20182;-70
2022/12/25 05:48:22;;;;;;;26.07;13.00;;;6.90;99.90;;;;;;5074650;28;20400;-72
2022/12/25 05:50:47;;;;;;;28.67;13.33;;;6.80;99.90;;;;;;5074925;28;20423;-71
2022/12/25 05:53:14;;;;;;;30.13;14.93;;;6.80;99.90;;;;;;5074843;28;20887;-71
2022/12/25 05:55:42;;;;;;;26.80;13.50;;;6.80;99.90;;;;;;5074009;28;20198;-69
2022/12/25 05:58:10;;;;;;;24.13;12.30;;;6.80;99.90;;;;;;5074763;28;20978;-70
2022/12/25 06:00:36;;;;;;;21.00;13.07;;;6.80;99.90;;;;;;5074483;28;20484;-69
2022/12/25 06:03:02;;;;;;;26.43;13.50;;;6.70;99.90;;;;;;5074739;28;20393;-69
2022/12/25 06:05:28;;;;;;;25.00;14.03;;;6.70;99.90;;;;;;5073741;28;20448;-72
2022/12/25 06:07:54;;;;;;;29.67;12.97;;;6.70;99.90;;;;;;5074209;28;20431;-69
2022/12/25 06:10:20;;;;;;;34.30;15.33;;;6.70;99.90;;;;;;5074504;28;20224;-68
2022/12/25 06:12:46;;;;;;;25.67;14.20;;;6.70;99.90;;;;;;5074438;28;20404;-71
2022/12/25 06:15:11;;;;;;;27.80;13.53;;;6.70;99.90;;;;;;5073569;28;20243;-69
2022/12/25 06:17:37;;;;;;;22.87;13.30;;;6.70;99.90;;;;;;5074336;28;20169;-71
2022/12/25 06:20:03;;;;;;;28.40;14.73;;;6.70;99.90;;;;;;5074350;28;20407;-68
2022/12/25 06:22:30;;;;;;;33.67;14.57;;;6.70;99.90;;;;;;5074324;28;20167;-70
2022/12/25 06:24:56;;;;;;;33.43;14.87;;;6.60;99.90;;;;;;5073088;28;20424;-68
2022/12/25 06:27:22;;;;;;;32.10;15.60;;;6.60;99.90;;;;;;5074127;28;20415;-71
2022/12/25 06:29:48;;;;;;;26.00;14.47;;;6.50;99.90;;;;;;5074019;28;20773;-71
2022/12/25 06:32:13;;;;;;;27.73;12.47;;;6.50;99.90;;;;;;5074143;28;20220;-68
2022/12/25 06:34:39;;;;;;;26.57;14.37;;;6.50;99.90;;;;;;5073041;28;20193;-71
2022/12/25 06:37:05;;;;;;;29.27;13.80;;;6.40;99.90;;;;;;5073909;28;20174;-69
2022/12/25 06:39:30;;;;;;;24.20;13.10;;;6.40;99.90;;;;;;5074010;28;20170;-71
2022/12/25 06:41:56;;;;;;;18.70;13.23;;;6.40;99.90;;;;;;5073581;28;20285;-69
2022/12/25 06:44:22;;;;;;;19.63;11.93;;;6.40;99.90;;;;;;5073217;28;20443;-72
2022/12/25 06:46:48;;;;;;;20.50;13.00;;;6.40;99.90;;;;;;5073849;28;20550;-66
2022/12/25 06:49:13;;;;;;;17.10;11.10;;;6.40;99.90;;;;;;5073523;28;20174;-67
2022/12/25 06:51:39;;;;;;;31.07;12.13;;;6.40;99.90;;;;;;5073578;28;20170;-72
2022/12/25 06:54:05;;;;;;;24.57;11.93;;;6.40;99.90;;;;;;5073536;28;20535;-69
2022/12/25 06:56:33;;;;;;;30.87;14.03;;;6.30;99.90;;;;;;5072323;28;20201;-68
2022/12/25 06:59:04;;;;;;;28.70;14.07;;;6.30;99.90;;;;;;5073323;28;20245;-68
2022/12/25 07:01:46;;;;;;;23.23;12.03;;;6.30;99.90;;;;;;5073532;28;20408;-70
2022/12/25 07:04:27;;;;;;;23.57;13.43;;;6.40;99.90;;;;;;5073116;28;20417;-68
2022/12/25 07:06:53;;;;;;;23.63;13.00;;;6.40;99.90;;;;;;5073418;28;20880;-68
2022/12/25 07:09:19;;;;;;;26.97;12.73;;;6.30;99.90;;;;;;5073375;28;20488;-70
2022/12/25 07:11:44;;;;;;;25.23;13.07;;;6.30;99.90;;;;;;5073316;28;20232;-70
2022/12/25 07:14:21;;;;;;;21.17;10.77;;;6.30;99.90;;;;;;5072894;28;20655;-68
2022/12/25 07:16:48;;;;;;;26.30;12.63;;;6.30;99.90;;;;;;5073246;28;20201;-69
2022/12/25 07:19:14;;;;;;;23.33;12.90;;;6.20;99.90;;;;;;5073015;28;20404;-70
2022/12/25 07:21:40;;;;;;;25.63;11.73;;;6.20;99.90;;;;;;5055232;28;20851;-68
2022/12/25 07:24:06;;;;;;;22.50;12.33;;;6.20;99.90;;;;;;5072850;28;20516;-71
2022/12/25 07:26:31;;;;;;;24.27;12.00;;;6.20;99.90;;;;;;5072653;28;20170;-68
2022/12/25 07:28:57;;;;;;;24.13;12.87;;;6.20;99.90;;;;;;5055195;28;20812;-68
2022/12/25 07:31:23;;;;;;;23.47;12.40;;;6.20;99.90;;;;;;5073148;28;20713;-71
2022/12/25 07:33:53;;;;;;;25.10;13.00;;;6.20;99.90;;;;;;5073006;28;20201;-69
2022/12/25 07:36:19;;;;;;;33.63;14.97;;;6.10;99.90;;;;;;5072318;28;20571;-68
2022/12/25 07:38:48;;;;;;;25.83;11.80;;;6.10;99.90;;;;;;5055084;28;20412;-71
2022/12/25 07:41:14;;;;;;;31.60;12.87;;;6.20;99.90;;;;;;5072923;28;20407;-71
2022/12/25 07:43:40;;;;;;;25.37;13.77;;;6.20;99.90;;;;;;5072951;28;20403;-71
2022/12/25 07:46:06;;;;;;;26.40;14.07;;;6.20;99.90;;;;;;5072264;28;20256;-71
2022/12/25 07:48:31;;;;;;;25.73;13.40;;;6.20;99.90;;;;;;5072792;28;20510;-68
2022/12/25 07:51:02;;;;;;;38.13;14.60;;;6.20;99.90;;;;;;5073013;28;20615;-71
2022/12/25 07:53:28;;;;;;;29.10;16.00;;;6.20;99.90;;;;;;5072917;28;20166;-68
2022/12/25 07:56:02;;;;;;;27.10;14.10;;;6.20;1.00;;;;;;5071641;28;20463;-69
2022/12/25 07:58:29;;;;;;;23.77;12.30;;;6.30;1.00;;;;;;5072479;28;20419;-71
2022/12/25 08:00:55;;;;;;;25.40;13.20;;;6.30;1.00;;;;;;5054941;28;20489;-68
2022/12/25 08:03:20;;;;;;;26.77;13.90;;;6.30;1.00;;;;;;5054808;28;20413;-71
2022/12/25 08:05:46;;;;;;;26.30;13.70;;;6.40;1.00;;;;;;5071880;28;20450;-71
2022/12/25 08:08:12;;;;;;;26.93;12.43;;;6.40;1.00;;;;;;5076494;28;20194;-70
2022/12/25 08:10:38;;;;;;;23.90;13.30;;;6.50;1.00;;;;;;5076643;28;20178;-71
2022/12/25 08:13:03;;;;;;;24.70;13.67;;;6.40;1.00;;;;;;5076596;28;20178;-69
2022/12/25 08:15:29;;;;;;;23.97;12.50;;;6.40;1.00;;;;;;5075732;28;20212;-68
2022/12/25 08:17:55;;;;;;;20.33;12.00;;;6.40;1.00;;;;;;5076721;28;20169;-68
2022/12/25 08:20:21;;;;;;;22.33;11.47;;;6.40;1.00;;;;;;5076679;28;20749;-70
2022/12/25 08:22:46;;;;;;;23.63;12.53;;;6.40;1.00;;;;;;5076354;28;20166;-69
2022/12/25 08:25:14;;;;;;;22.60;11.50;;;6.40;1.00;;;;;;5075789;28;20186;-69
2022/12/25 08:27:40;;;;;;;23.70;14.00;;;6.50;1.00;;;;;;5076466;28;20162;-68
2022/12/25 08:30:06;;;;;;;20.27;10.90;;;6.50;1.00;;;;;;5076151;28;20400;-69
2022/12/25 08:32:32;;;;;;;20.67;12.10;;;6.50;1.00;;;;;;5076270;28;20170;-70
2022/12/25 08:34:58;;;;;;;15.90;10.70;;;6.50;1.00;;;;;;5075452;28;20452;-68
2022/12/25 08:37:24;;;;;;;24.43;11.00;;;6.50;1.00;;;;;;5076247;28;20430;-70
2022/12/25 08:39:50;;;;;;;24.20;11.87;;;6.50;1.00;;;;;;5076184;28;20444;-68
2022/12/25 08:42:15;;;;;;;22.37;11.33;;;6.50;99.90;;;;;;5076126;28;20162;-68
2022/12/25 08:44:41;;;;;;;17.70;12.57;;;6.50;1.00;;;;;;5075267;28;20592;-71
2022/12/25 08:47:07;;;;;;;31.97;13.10;;;6.50;1.00;;;;;;5075484;28;20397;-70
2022/12/25 08:49:33;;;;;;;27.27;11.77;;;6.50;1.00;;;;;;5076232;28;20253;-71
2022/12/25 08:51:58;;;;;;;22.00;11.27;;;6.50;1.00;;;;;;5075810;28;20634;-69
2022/12/25 08:54:24;;;;;;;22.97;11.40;;;6.50;1.00;;;;;;5075086;28;20193;-68
2022/12/25 08:56:50;;;;;;;27.13;12.03;;;6.50;1.00;;;;;;5075764;28;20221;-68
2022/12/25 08:59:15;;;;;;;31.13;13.43;;;6.60;1.00;;;;;;5075658;28;20198;-68
2022/12/25 09:01:41;;;;;;;29.33;12.33;;;6.60;1.00;;;;;;5075800;28;20180;-69
2022/12/25 09:04:07;;;;;;;22.27;11.30;;;6.70;1.00;;;;;;5075357;28;20182;-72
2022/12/25 09:06:32;;;;;;;27.30;11.97;;;6.70;1.00;;;;;;5074754;28;20189;-71
2022/12/25 09:08:58;;;;;;;23.17;10.77;;;6.70;1.00;;;;;;5075650;28;20151;-71
2022/12/25 09:11:24;;;;;;;20.60;11.10;;;6.80;1.00;;;;;;5075696;28;20197;-71
2022/12/25 09:13:50;;;;;;;21.10;11.53;;;6.80;1.00;;;;;;5075579;28;20167;-69
2022/12/25 09:16:19;;;;;;;17.70;11.10;;;6.80;1.00;;;;;;5075071;28;20448;-68
2022/12/25 09:18:45;;;;;;;24.50;11.80;;;6.80;1.00;;;;;;5074773;28;20162;-71
2022/12/25 09:21:13;;;;;;;22.67;11.43;;;6.80;1.00;;;;;;5075326;28;20397;-68
2022/12/25 09:23:39;;;;;;;16.20;10.33;;;6.80;99.90;;;;;;5075177;28;20696;-68
2022/12/25 09:26:07;;;;;;;23.83;9.83;;;6.80;99.90;;;;;;5074665;28;20428;-68
2022/12/25 09:28:33;;;;;;;27.57;10.57;;;6.90;99.90;;;;;;5075189;28;20412;-71
2022/12/25 09:31:00;;;;;;;21.90;11.17;;;6.90;99.90;;;;;;5075143;28;20765;-69
2022/12/25 09:33:25;;;;;;;19.00;10.07;;;7.00;99.90;;;;;;5075211;28;20425;-71
2022/12/25 09:35:59;;;;;;;18.93;10.73;;;7.00;99.90;;;;;;5074353;28;20853;-71
2022/12/25 09:38:25;;;;;;;13.40;8.87;;;7.10;99.90;;;;;;5075131;28;20238;-69
2022/12/25 09:41:07;;;;;;;20.23;11.57;;;7.10;99.90;;;;;;5074989;28;20898;-69
2022/12/25 09:43:41;;;;;;;21.20;10.60;;;7.20;99.90;;;;;;5075023;28;20397;-71
2022/12/25 09:46:13;;;;;;;15.67;9.37;;;7.20;99.90;;;;;;5056390;28;20429;-70
2022/12/25 09:48:44;;;;;;;26.37;9.20;;;7.20;99.90;;;;;;5074895;28;20405;-71
2022/12/25 09:51:14;;;;;;;15.90;9.77;;;7.20;99.90;;;;;;5074777;28;20405;-70
2022/12/25 09:53:46;;;;;;;14.97;10.63;;;7.10;99.90;;;;;;5074939;28;20420;-68
2022/12/25 09:56:18;;;;;;;20.50;9.43;;;7.30;99.90;;;;;;5074202;28;20467;-71
2022/12/25 09:58:44;;;;;;;16.00;8.30;;;7.30;99.90;;;;;;5074676;28;20668;-68
2022/12/25 10:01:23;;;;;;;21.23;9.00;;;7.40;99.90;;;;;;5074441;28;20446;-69
2022/12/25 10:03:58;;;;;;;16.63;8.70;;;7.40;99.90;;;;;;5074540;28;20527;-68
2022/12/25 10:06:51;;;;;;;13.97;8.70;;;7.50;99.90;;;;;;5073909;28;20424;-68
2022/12/25 10:09:25;;;;;;;16.80;8.73;;;7.60;99.90;;;;;;5074411;28;20551;-70
2022/12/25 10:12:34;;;;;;;19.30;9.27;;;7.60;99.90;;;;;;5074467;28;20916;-68
2022/12/25 10:15:26;;;;;;;23.57;10.00;;;7.70;99.90;;;;;;5064228;28;20571;-70
2022/12/25 10:18:10;;;;;;;13.57;7.60;;;7.80;99.90;;;;;;5074347;28;20508;-70
2022/12/25 10:20:49;;;;;;;14.90;7.80;;;7.90;99.90;;;;;;5074037;28;20397;-70
2022/12/25 10:23:38;;;;;;;27.80;10.40;;;7.80;99.90;;;;;;5074200;28;20391;-70
2022/12/25 10:26:14;;;;;;;19.30;9.90;;;7.90;99.90;;;;;;5072860;28;20416;-71
2022/12/25 10:28:54;;;;;;;16.10;8.27;;;7.80;99.90;;;;;;5074119;28;20396;-69
2022/12/25 10:31:26;;;;;;;22.90;10.07;;;7.80;99.90;;;;;;5073154;28;20897;-69
2022/12/25 10:33:53;;;;;;;16.53;7.23;;;7.80;99.90;;;;;;5077059;28;20416;-68
2022/12/25 10:36:24;;;;;;;20.20;8.30;;;7.80;99.90;;;;;;5092814;28;20475;-72
2022/12/25 10:38:50;;;;;;;16.50;8.50;;;7.70;99.90;;;;;;5060375;28;20425;-68
2022/12/25 10:41:25;;;;;;;21.33;6.90;;;7.80;99.90;;;;;;5063832;28;20478;-68
2022/12/25 10:43:55;;;;;;;29.60;8.83;;;7.80;99.90;;;;;;5070586;28;20432;-71
2022/12/25 10:46:23;;;;;;;19.70;9.93;;;7.70;99.90;;;;;;5070857;28;20467;-72
2022/12/25 10:48:53;;;;;;;17.10;8.30;;;7.70;99.90;;;;;;5073777;28;20401;-70
2022/12/25 10:51:37;;;;;;;20.63;9.93;;;7.70;99.90;;;;;;5068106;28;20584;-72
2022/12/25 10:54:22;;;;;;;15.07;7.77;;;7.80;99.90;;;;;;5070128;28;20432;-69
2022/12/25 10:56:59;;;;;;;13.50;8.57;;;7.70;99.90;;;;;;5070150;28;20435;-71
2022/12/25 10:59:27;;;;;;;14.40;8.60;;;7.70;99.90;;;;;;5070097;28;20393;-72
2022/12/25 11:01:55;;;;;;;10.33;6.67;;;7.70;99.90;;;;;;5070128;28;20401;-70
2022/12/25 11:04:25;;;;;;;17.47;6.97;;;7.70;99.90;;;;;;5068282;28;20427;-70
2022/12/25 11:07:04;;;;;;;10.80;7.37;;;7.70;99.90;;;;;;5070356;28;20397;-73
2022/12/25 11:09:30;;;;;;;14.87;7.60;;;7.70;99.90;;;;;;5069999;28;20506;-70
2022/12/25 11:11:56;;;;;;;15.00;7.07;;;7.70;99.90;;;;;;5069962;28;20400;-72
2022/12/25 11:14:22;;;;;;;14.60;8.60;;;7.70;99.90;;;;;;5068203;28;20425;-70
2022/12/25 11:16:49;;;;;;;12.50;7.93;;;7.70;99.90;;;;;;5069815;28;20166;-72
2022/12/25 11:19:27;;;;;;;12.20;7.47;;;7.80;99.90;;;;;;5069876;28;20488;-72
2022/12/25 11:21:56;;;;;;;17.87;7.93;;;7.70;99.90;;;;;;5069732;28;20401;-70
2022/12/25 11:24:29;;;;;;;16.00;7.73;;;7.80;99.90;;;;;;5069112;28;20416;-70
2022/12/25 11:26:57;;;;;;;13.20;7.80;;;7.80;99.90;;;;;;5068582;28;20409;-69
2022/12/25 11:29:40;;;;;;;9.63;6.33;;;7.80;99.90;;;;;;5069613;28;20467;-69
2022/12/25 11:32:15;;;;;;;14.90;6.73;;;7.80;99.90;;;;;;5069457;28;20404;-72
2022/12/25 11:34:44;;;;;;;18.97;7.43;;;7.80;99.90;;;;;;5067681;28;20436;-69
2022/12/25 11:37:37;;;;;;;10.37;6.93;;;7.90;99.90;;;;;;5069531;28;20964;-72
2022/12/25 11:40:04;;;;;;;13.80;8.93;;;7.90;99.90;;;;;;5068940;28;20971;-69
2022/12/25 11:42:31;;;;;;;16.13;8.37;;;7.90;99.90;;;;;;5069399;28;20824;-72
2022/12/25 11:45:19;;;;;;;12.00;7.37;;;7.90;99.90;;;;;;5068663;28;20463;-72
2022/12/25 11:47:53;;;;;;;16.70;7.40;;;8.00;99.90;;;;;;5069304;28;20931;-72
2022/12/25 11:50:35;;;;;;;18.53;7.20;;;8.00;99.90;;;;;;5068669;28;20884;-70
2022/12/25 11:53:04;;;;;;;15.67;8.27;;;8.00;99.90;;;;;;5069319;28;20562;-71
2022/12/25 11:55:53;;;;;;;18.40;9.87;;;8.00;99.90;;;;;;5068447;28;20837;-70
2022/12/25 11:58:32;;;;;;;14.17;8.83;;;8.00;99.90;;;;;;5069068;28;20419;-72
2022/12/25 12:01:01;;;;;;;29.23;9.07;;;8.00;99.90;;;;;;5064679;28;20499;-69
2022/12/25 12:03:39;;;;;;;13.47;7.93;;;8.10;99.90;;;;;;5054462;28;20409;-69
2022/12/25 12:06:05;;;;;;;11.90;6.60;;;8.10;99.90;;;;;;5055062;28;20878;-72
2022/12/25 12:08:33;;;;;;;10.83;7.97;;;8.10;99.90;;;;;;5055342;28;20412;-70
2022/12/25 12:11:38;;;;;;;16.33;7.60;;;8.10;99.90;;;;;;5055702;28;20459;-69
2022/12/25 12:14:28;;;;;;;11.63;7.10;;;8.10;99.90;;;;;;5054747;28;20439;-72
2022/12/25 12:16:54;;;;;;;12.97;7.53;;;8.10;99.90;;;;;;5055688;28;20471;-69
2022/12/25 12:19:28;;;;;;;18.23;7.70;;;8.10;99.90;;;;;;5055454;28;20402;-70
2022/12/25 12:22:02;;;;;;;14.53;7.57;;;8.10;99.90;;;;;;5055464;28;20590;-69
2022/12/25 12:24:40;;;;;;;9.40;6.83;;;8.10;99.90;;;;;;5054479;28;20428;-72
2022/12/25 12:27:26;;;;;;;11.77;7.50;;;8.20;99.90;;;;;;5055097;28;20406;-71
2022/12/25 12:29:56;;;;;;;13.70;7.73;;;8.20;99.90;;;;;;5055244;28;20448;-72
2022/12/25 12:32:36;;;;;;;20.03;9.10;;;8.20;99.90;;;;;;5055314;28;20762;-72
2022/12/25 12:35:12;;;;;;;12.57;7.80;;;8.20;99.90;;;;;;5054492;28;20419;-72
2022/12/25 12:37:39;;;;;;;11.03;7.70;;;8.20;99.90;;;;;;5055242;28;20401;-69
2022/12/25 12:40:20;;;;;;;15.57;7.80;;;8.20;99.90;;;;;;5055097;28;20816;-69
2022/12/25 12:42:49;;;;;;;13.30;8.83;;;8.20;99.90;;;;;;5055071;28;20418;-69
2022/12/25 12:45:28;;;;;;;13.00;8.50;;;8.20;99.90;;;;;;5054114;28;20841;-70
2022/12/25 12:47:54;;;;;;;14.47;8.83;;;8.20;99.90;;;;;;5053997;28;20457;-69
2022/12/25 12:50:36;;;;;;;11.03;7.37;;;8.20;99.90;;;;;;5054881;28;20454;-70
2022/12/25 12:53:32;;;;;;;14.70;8.40;;;8.20;99.90;;;;;;5054864;28;20401;-72
2022/12/25 12:56:13;;;;;;;14.97;9.07;;;8.20;99.90;;;;;;5053036;28;20517;-72
2022/12/25 12:58:48;;;;;;;8.87;7.63;;;8.20;99.90;;;;;;5054719;28;20398;-72
2022/12/25 13:01:26;;;;;;;12.03;7.80;;;8.20;99.90;;;;;;5054661;28;20470;-70
2022/12/25 13:04:07;;;;;;;16.20;8.53;;;8.20;99.90;;;;;;5052890;28;20914;-70
2022/12/25 13:06:53;;;;;;;9.80;7.40;;;8.20;99.90;;;;;;5054140;28;20418;-72
2022/12/25 13:09:44;;;;;;;13.43;8.67;;;8.20;99.90;;;;;;5049572;28;20815;-72
2022/12/25 13:12:11;;;;;;;11.57;7.80;;;8.20;99.90;;;;;;5054433;28;20402;-72
2022/12/25 13:14:37;;;;;;;10.90;8.10;;;8.20;99.90;;;;;;5052774;28;20813;-72
2022/12/25 13:17:07;;;;;;;12.37;8.47;;;8.30;99.90;;;;;;5054332;28;20398;-70
2022/12/25 13:19:35;;;;;;;12.23;8.93;;;8.20;99.90;;;;;;5054279;28;20399;-69
2022/12/25 13:22:03;;;;;;;14.63;8.03;;;8.20;99.90;;;;;;5054197;28;20440;-72
2022/12/25 13:24:34;;;;;;;13.57;8.83;;;8.30;99.90;;;;;;5053558;28;20931;-72
2022/12/25 13:27:19;;;;;;;17.70;9.37;;;8.20;99.90;;;;;;5054155;28;20492;-71
2022/12/25 13:29:45;;;;;;;13.43;7.87;;;8.30;99.90;;;;;;5053019;28;20522;-71
2022/12/25 13:32:23;;;;;;;22.10;9.57;;;8.30;99.90;;;;;;5053066;28;20985;-72
2022/12/25 13:34:50;;;;;;;15.70;8.57;;;8.30;99.90;;;;;;5053375;28;20187;-70
2022/12/25 13:37:18;;;;;;;18.00;8.67;;;8.20;99.90;;;;;;5053761;28;20409;-72
2022/12/25 13:39:58;;;;;;;10.43;8.23;;;8.30;99.90;;;;;;5052827;28;20416;-71
2022/12/25 13:42:35;;;;;;;12.87;8.17;;;8.30;99.90;;;;;;5054272;28;20442;-71
2022/12/25 13:45:17;;;;;;;11.77;8.50;;;8.30;99.90;;;;;;5053648;28;20448;-71
2022/12/25 13:47:44;;;;;;;16.33;8.97;;;8.30;99.90;;;;;;5054256;28;20783;-71
2022/12/25 13:50:19;;;;;;;17.10;8.20;;;8.30;99.90;;;;;;5054148;28;20814;-70
2022/12/25 13:52:44;;;;;;;15.50;9.17;;;8.40;99.90;;;;;;5054046;28;20408;-72
2022/12/25 13:55:22;;;;;;;17.93;9.57;;;8.30;99.90;;;;;;5052885;28;20421;-74
2022/12/25 13:57:59;;;;;;;18.57;8.17;;;8.30;99.90;;;;;;5053452;28;20170;-72
2022/12/25 14:00:34;;;;;;;20.27;8.63;;;8.30;99.90;;;;;;5053611;28;20369;-71
2022/12/25 14:03:00;;;;;;;11.00;8.33;;;8.30;99.90;;;;;;5053573;28;20491;-70
2022/12/25 14:05:34;;;;;;;11.53;9.73;;;8.30;99.90;;;;;;5052779;28;20994;-70
2022/12/25 14:08:13;;;;;;;15.90;8.23;;;8.20;99.90;;;;;;5053477;28;20659;-72
2022/12/25 14:10:40;;;;;;;9.90;8.60;;;8.20;99.90;;;;;;5053378;28;20459;-72
2022/12/25 14:13:11;;;;;;;19.17;8.90;;;8.20;99.90;;;;;;5053404;28;20389;-71
2022/12/25 14:15:40;;;;;;;14.53;8.80;;;8.30;99.90;;;;;;5052370;28;20419;-72
2022/12/25 14:18:12;;;;;;;20.53;9.30;;;8.20;99.90;;;;;;5053299;28;20923;-72
2022/12/25 14:20:41;;;;;;;12.00;7.73;;;8.20;99.90;;;;;;5052251;28;20835;-72
2022/12/25 14:23:13;;;;;;;15.70;9.57;;;8.30;99.90;;;;;;5053218;28;20405;-72
2022/12/25 14:25:44;;;;;;;15.10;8.90;;;8.20;99.90;;;;;;5052194;28;20449;-73
2022/12/25 14:28:23;;;;;;;15.80;7.53;;;8.20;99.90;;;;;;5053155;28;20432;-73
2022/12/25 14:30:49;;;;;;;18.40;8.60;;;8.10;99.90;;;;;;5053032;28;20498;-70
2022/12/25 14:33:22;;;;;;;15.03;8.93;;;8.10;99.90;;;;;;5053173;28;20410;-72
2022/12/25 14:35:50;;;;;;;14.17;9.57;;;8.20;99.90;;;;;;5052134;28;20423;-72
2022/12/25 14:38:38;;;;;;;17.80;10.80;;;8.20;99.90;;;;;;5053132;28;20395;-72
2022/12/25 14:41:32;;;;;;;19.10;9.43;;;8.10;99.90;;;;;;5053140;28;20383;-70